createdAt,value
2022-08-17T00:00:42.663Z,3.40
2022-08-17T00:03:10.957Z,3.63
2022-08-17T00:05:45.941Z,3.58
2022-08-17T00:08:15.648Z,4.00
2022-08-17T00:10:46.388Z,3.63
2022-08-17T00:13:18.479Z,3.17
2022-08-17T00:15:47.092Z,3.90
2022-08-17T00:18:57.453Z,3.75
2022-08-17T00:21:10.339Z,3.80
2022-08-17T00:23:39.316Z,3.63
2022-08-17T00:26:16.590Z,3.60
2022-08-17T00:29:05.663Z,3.88
2022-08-17T00:31:34.288Z,3.70
2022-08-17T00:34:02.436Z,4.28
2022-08-17T00:36:32.334Z,3.60
2022-08-17T00:39:00.414Z,3.33
2022-08-17T00:41:29.450Z,3.30
2022-08-17T00:44:01.545Z,3.60
2022-08-17T00:46:32.913Z,3.00
2022-08-17T00:49:01.646Z,3.50
2022-08-17T00:51:36.127Z,3.60
2022-08-17T00:54:09.114Z,3.30
2022-08-17T00:56:41.095Z,3.72
2022-08-17T00:59:11.459Z,3.75
2022-08-17T01:01:40.111Z,3.65
2022-08-17T01:04:09.617Z,3.75
2022-08-17T01:06:41.698Z,3.53
2022-08-17T01:09:10.421Z,3.10
2022-08-17T01:11:40.125Z,3.78
2022-08-17T01:14:09.631Z,3.80
2022-08-17T01:16:39.062Z,3.58
2022-08-17T01:19:16.499Z,3.25
2022-08-17T01:21:54.198Z,3.78
2022-08-17T01:24:24.383Z,3.70
2022-08-17T01:26:52.634Z,3.50
2022-08-17T01:29:26.006Z,3.70
2022-08-17T01:31:58.318Z,3.38
2022-08-17T01:34:28.210Z,3.33
2022-08-17T01:37:11.981Z,3.80
2022-08-17T01:39:45.810Z,3.75
2022-08-17T01:42:21.368Z,3.10
2022-08-17T01:44:50.537Z,3.55
2022-08-17T01:47:18.601Z,2.92
2022-08-17T01:49:48.009Z,3.05
2022-08-17T01:52:16.802Z,3.30
2022-08-17T01:54:48.738Z,3.58
2022-08-17T01:57:17.127Z,3.47
2022-08-17T01:59:45.200Z,3.28
2022-08-17T02:02:30.475Z,3.35
2022-08-17T02:04:59.873Z,3.35
2022-08-17T02:07:27.979Z,3.25
2022-08-17T02:09:57.633Z,3.25
2022-08-17T02:12:37.922Z,3.42
2022-08-17T02:15:10.302Z,3.42
2022-08-17T02:17:40.836Z,3.75
2022-08-17T02:20:11.055Z,3.72
2022-08-17T02:22:41.187Z,3.67
2022-08-17T02:25:13.831Z,3.08
2022-08-17T02:27:42.383Z,3.47
2022-08-17T02:31:01.228Z,3.15
2022-08-17T02:33:04.147Z,3.33
2022-08-17T02:35:35.684Z,2.80
2022-08-17T02:38:06.072Z,2.97
2022-08-17T02:40:36.696Z,3.10
2022-08-17T02:43:06.050Z,3.13
2022-08-17T02:45:34.211Z,3.03
2022-08-17T02:48:02.922Z,3.22
2022-08-17T02:50:31.154Z,3.53
2022-08-17T02:53:01.690Z,3.30
2022-08-17T02:55:33.103Z,3.60
2022-08-17T02:58:03.718Z,3.03
2022-08-17T03:00:34.348Z,2.90
2022-08-17T03:03:04.786Z,3.10
2022-08-17T03:05:36.286Z,3.05
2022-08-17T03:08:05.853Z,2.83
2022-08-17T03:10:34.520Z,2.95
2022-08-17T03:13:05.048Z,3.22
2022-08-17T03:15:35.824Z,3.03
2022-08-17T03:18:08.798Z,2.45
2022-08-17T03:20:47.326Z,2.83
2022-08-17T03:23:15.907Z,3.05
2022-08-17T03:25:46.454Z,3.08
2022-08-17T03:28:17.718Z,2.97
2022-08-17T03:30:45.787Z,2.75
2022-08-17T03:33:14.449Z,2.38
2022-08-17T03:35:43.196Z,2.60
2022-08-17T03:38:15.262Z,2.92
2022-08-17T03:40:57.058Z,2.60
2022-08-17T03:43:35.815Z,2.72
2022-08-17T03:46:33.890Z,2.50
2022-08-17T03:49:23.857Z,2.60
2022-08-17T03:52:09.309Z,2.50
2022-08-17T03:54:58.083Z,2.42
2022-08-17T03:57:28.167Z,2.45
2022-08-17T04:00:13.787Z,2.85
2022-08-17T04:02:44.162Z,2.72
2022-08-17T04:05:12.333Z,2.63
2022-08-17T04:07:40.478Z,2.40
2022-08-17T04:10:09.427Z,2.78
2022-08-17T04:12:45.952Z,2.63
2022-08-17T04:15:16.666Z,2.60
2022-08-17T04:17:45.899Z,2.58
2022-08-17T04:20:15.141Z,2.65
2022-08-17T04:22:58.018Z,2.22
2022-08-17T04:25:27.436Z,2.65
2022-08-17T04:27:55.965Z,2.97
2022-08-17T04:30:26.251Z,2.25
2022-08-17T04:33:03.902Z,2.33
2022-08-17T04:35:37.481Z,2.35
2022-08-17T04:38:06.070Z,2.30
2022-08-17T04:40:52.108Z,2.42
2022-08-17T04:43:22.338Z,2.30
2022-08-17T04:45:57.135Z,2.53
2022-08-17T04:51:14.555Z,2.78
2022-08-17T04:53:45.300Z,2.90
2022-08-17T04:56:22.219Z,2.72
2022-08-17T04:58:52.663Z,2.85
2022-08-17T05:01:24.736Z,3.17
2022-08-17T05:03:53.724Z,3.28
2022-08-17T05:06:22.106Z,3.50
2022-08-17T05:08:50.522Z,3.33
2022-08-17T05:11:19.279Z,3.58
2022-08-17T05:13:50.507Z,3.15
2022-08-17T05:16:19.823Z,3.55
2022-08-17T05:18:49.608Z,3.67
2022-08-17T05:21:18.362Z,4.25
2022-08-17T05:23:47.734Z,4.78
2022-08-17T05:26:25.902Z,4.22
2022-08-17T05:28:57.085Z,4.10
2022-08-17T05:31:30.016Z,5.22
2022-08-17T05:33:59.927Z,5.78
2022-08-17T05:36:42.014Z,4.93
2022-08-17T05:39:16.369Z,5.55
2022-08-17T05:41:46.648Z,4.38
2022-08-17T05:44:15.227Z,4.53
2022-08-17T05:46:49.026Z,5.20
2022-08-17T05:49:24.456Z,6.00
2022-08-17T05:52:19.584Z,6.65
2022-08-17T05:55:04.602Z,4.65
2022-08-17T05:57:52.963Z,4.80
2022-08-17T06:00:26.314Z,4.50
2022-08-17T06:03:23.003Z,4.72
2022-08-17T06:06:08.712Z,5.53
2022-08-17T06:08:45.696Z,5.43
2022-08-17T06:11:22.695Z,6.18
2022-08-17T06:14:09.273Z,6.05
2022-08-17T06:16:41.208Z,5.95
2022-08-17T06:19:15.764Z,5.05
2022-08-17T06:21:50.037Z,5.47
2022-08-17T06:24:28.533Z,7.28
2022-08-17T06:27:03.067Z,6.57
2022-08-17T06:29:39.794Z,7.03
2022-08-17T06:32:12.681Z,6.95
2022-08-17T06:34:42.867Z,7.45
2022-08-17T06:37:32.477Z,7.47
2022-08-17T06:40:20.843Z,8.25
2022-08-17T06:43:05.939Z,7.45
2022-08-17T06:45:38.768Z,7.65
2022-08-17T06:48:13.615Z,8.95
2022-08-17T06:50:48.764Z,8.60
2022-08-17T06:53:23.582Z,7.13
2022-08-17T06:55:59.879Z,8.32
2022-08-17T06:58:32.410Z,7.28
2022-08-17T07:01:06.580Z,7.20
2022-08-17T07:03:39.266Z,6.13
2022-08-17T07:06:13.846Z,7.28
2022-08-17T07:08:59.023Z,7.53
2022-08-17T07:11:32.874Z,6.68
2022-08-17T07:14:16.983Z,6.35
2022-08-17T07:16:48.164Z,6.07
2022-08-17T07:19:17.846Z,6.05
2022-08-17T07:21:55.746Z,7.63
2022-08-17T07:24:39.415Z,5.75
2022-08-17T07:27:11.138Z,5.82
2022-08-17T07:29:47.808Z,5.70
2022-08-17T07:32:19.951Z,5.70
2022-08-17T07:35:12.227Z,6.78
2022-08-17T07:37:45.631Z,5.15
2022-08-17T07:40:22.328Z,5.88
2022-08-17T07:43:05.278Z,6.00
2022-08-17T07:45:52.818Z,6.60
2022-08-17T07:48:22.906Z,5.65
2022-08-17T07:50:53.227Z,4.65
2022-08-17T07:53:24.217Z,6.35
2022-08-17T07:55:54.643Z,5.60
2022-08-17T07:58:24.589Z,5.57
2022-08-17T08:01:08.995Z,5.65
2022-08-17T08:03:42.866Z,5.60
2022-08-17T08:06:21.833Z,5.18
2022-08-17T08:08:53.771Z,5.72
2022-08-17T08:11:34.332Z,4.93
2022-08-17T08:14:28.561Z,5.93
2022-08-17T08:16:59.811Z,3.88
2022-08-17T08:19:29.594Z,5.10
2022-08-17T08:22:05.662Z,4.50
2022-08-17T08:25:01.227Z,4.70
2022-08-17T08:27:40.188Z,4.40
2022-08-17T08:30:11.145Z,4.30
2022-08-17T08:32:57.931Z,4.95
2022-08-17T08:35:32.909Z,4.53
2022-08-17T08:38:11.390Z,4.35
2022-08-17T08:40:55.985Z,3.83
2022-08-17T08:43:36.228Z,4.70
2022-08-17T08:46:13.178Z,4.00
2022-08-17T08:49:06.572Z,4.22
2022-08-17T08:51:53.236Z,4.30
2022-08-17T08:54:35.208Z,4.65
2022-08-17T08:57:29.158Z,3.75
2022-08-17T09:00:15.168Z,3.83
2022-08-17T09:03:05.634Z,4.15
2022-08-17T09:05:49.800Z,4.18
2022-08-17T09:08:27.052Z,4.28
2022-08-17T09:11:01.253Z,3.80
2022-08-17T09:13:40.379Z,3.85
2022-08-17T09:16:15.811Z,3.75
2022-08-17T09:19:00.151Z,4.05
2022-08-17T09:21:47.804Z,3.58
2022-08-17T09:24:24.389Z,3.10
2022-08-17T09:26:58.752Z,3.65
2022-08-17T09:29:30.628Z,3.65
2022-08-17T09:32:03.788Z,3.78
2022-08-17T09:34:36.130Z,3.53
2022-08-17T09:37:17.403Z,3.25
2022-08-17T09:39:54.395Z,3.38
2022-08-17T09:42:27.991Z,3.30
2022-08-17T09:45:03.541Z,3.38
2022-08-17T09:47:45.438Z,3.70
2022-08-17T09:51:03.940Z,2.70
2022-08-17T09:53:10.725Z,2.80
2022-08-17T09:55:58.297Z,2.97
2022-08-17T09:58:37.214Z,2.70
2022-08-17T10:01:17.341Z,2.20
2022-08-17T10:04:04.837Z,2.67
2022-08-17T10:06:42.898Z,2.60
2022-08-17T10:09:18.805Z,2.35
2022-08-17T10:12:11.503Z,2.45
2022-08-17T10:14:53.460Z,2.35
2022-08-17T10:17:36.367Z,2.53
2022-08-17T10:20:13.773Z,2.63
2022-08-17T10:23:04.465Z,2.50
2022-08-17T10:25:55.558Z,2.50
2022-08-17T10:28:30.298Z,2.20
2022-08-17T10:31:31.014Z,2.17
2022-08-17T10:34:02.343Z,2.58
2022-08-17T10:36:47.656Z,2.20
2022-08-17T10:39:26.647Z,2.45
2022-08-17T10:41:58.071Z,2.15
2022-08-17T10:44:39.852Z,2.40
2022-08-17T10:47:11.724Z,1.98
2022-08-17T10:49:48.227Z,2.30
2022-08-17T10:52:50.131Z,2.35
2022-08-17T10:55:20.474Z,2.75
2022-08-17T10:57:50.937Z,2.30
2022-08-17T11:01:12.989Z,2.50
2022-08-17T11:03:55.180Z,1.75
2022-08-17T11:06:30.721Z,1.70
2022-08-17T11:09:32.547Z,1.60
2022-08-17T11:12:12.130Z,1.98
2022-08-17T11:14:56.509Z,1.67
2022-08-17T11:17:47.520Z,1.60
2022-08-17T11:20:47.866Z,1.77
2022-08-17T11:23:51.501Z,1.80
2022-08-17T11:26:26.906Z,1.88
2022-08-17T11:28:59.855Z,2.20
2022-08-17T11:31:38.695Z,2.00
2022-08-17T11:34:18.577Z,2.05
2022-08-17T11:37:25.664Z,1.77
2022-08-17T11:40:30.358Z,1.80
2022-08-17T11:43:25.540Z,1.50
2022-08-17T11:46:10.823Z,1.98
2022-08-17T11:49:02.032Z,1.92
2022-08-17T11:51:56.537Z,1.77
2022-08-17T11:54:40.004Z,2.50
2022-08-17T11:57:41.092Z,2.00
2022-08-17T12:00:50.359Z,1.70
2022-08-17T12:03:26.555Z,2.03
2022-08-17T12:06:07.293Z,1.90
2022-08-17T12:08:43.494Z,1.92
2022-08-17T12:11:18.954Z,2.17
2022-08-17T12:14:11.651Z,1.60
2022-08-17T12:16:44.935Z,2.40
2022-08-17T12:19:22.778Z,1.80
2022-08-17T12:21:57.780Z,1.85
2022-08-17T12:24:40.472Z,1.90
2022-08-17T12:27:11.572Z,2.10
2022-08-17T12:29:45.396Z,2.08
2022-08-17T12:32:20.402Z,2.15
2022-08-17T12:34:50.781Z,1.98
2022-08-17T12:37:22.043Z,2.15
2022-08-17T12:39:53.711Z,1.73
2022-08-17T12:42:29.746Z,1.98
2022-08-17T12:44:58.327Z,1.95
2022-08-17T12:47:30.101Z,2.40
2022-08-17T12:50:28.723Z,1.80
2022-08-17T12:53:01.978Z,1.88
2022-08-17T12:55:36.428Z,1.88
2022-08-17T12:58:04.619Z,1.73
2022-08-17T13:00:38.114Z,1.80
2022-08-17T13:03:14.277Z,1.90
2022-08-17T13:05:55.502Z,1.88
2022-08-17T13:08:28.165Z,1.90
2022-08-17T13:10:57.890Z,1.73
2022-08-17T13:13:27.552Z,2.03
2022-08-17T13:15:58.961Z,1.70
2022-08-17T13:18:41.458Z,1.60
2022-08-17T13:21:19.247Z,3.38
2022-08-17T13:23:57.093Z,2.33
2022-08-17T13:26:30.403Z,1.95
2022-08-17T13:28:59.201Z,2.30
2022-08-17T13:31:44.085Z,1.92
2022-08-17T13:34:42.379Z,1.80
2022-08-17T13:37:32.481Z,2.00
2022-08-17T13:40:05.094Z,1.80
2022-08-17T13:42:50.435Z,1.98
2022-08-17T13:45:44.683Z,1.77
2022-08-17T13:48:26.875Z,1.77
2022-08-17T13:51:29.223Z,1.83
2022-08-17T13:54:05.273Z,1.75
2022-08-17T13:56:47.811Z,1.75
2022-08-17T13:59:36.267Z,1.80
2022-08-17T14:02:15.263Z,2.00
2022-08-17T14:04:45.507Z,1.80
2022-08-17T14:07:32.408Z,2.05
2022-08-17T14:10:03.371Z,1.90
2022-08-17T14:12:34.131Z,1.75
2022-08-17T14:15:03.422Z,1.70
2022-08-17T14:17:37.907Z,1.80
2022-08-17T14:20:09.267Z,2.00
2022-08-17T14:22:40.810Z,2.00
2022-08-17T14:25:10.818Z,2.00
2022-08-17T14:27:53.229Z,1.98
2022-08-17T14:30:24.728Z,1.90
2022-08-17T14:32:53.537Z,2.10
2022-08-17T14:35:23.883Z,2.20
2022-08-17T14:37:54.484Z,1.98
2022-08-17T14:40:24.774Z,1.80
2022-08-17T14:42:55.671Z,1.80
2022-08-17T14:45:32.892Z,1.70
2022-08-17T14:48:05.986Z,1.88
2022-08-17T14:50:35.341Z,2.50
2022-08-17T14:53:06.411Z,2.00
2022-08-17T14:55:35.254Z,2.10
2022-08-17T14:58:04.035Z,2.20
2022-08-17T15:00:32.511Z,1.80
2022-08-17T15:03:02.182Z,1.92
2022-08-17T15:05:33.559Z,1.77
2022-08-17T15:08:02.607Z,2.17
2022-08-17T15:10:33.077Z,2.00
2022-08-17T15:13:01.336Z,2.00
2022-08-17T15:15:30.791Z,2.00
2022-08-17T15:17:59.844Z,2.13
2022-08-17T15:20:30.421Z,2.00
2022-08-17T15:22:59.442Z,2.00
2022-08-17T15:25:29.952Z,2.33
2022-08-17T15:28:00.635Z,1.92
2022-08-17T15:30:29.300Z,1.90
2022-08-17T15:33:00.696Z,2.13
2022-08-17T15:35:31.140Z,1.90
2022-08-17T15:38:04.551Z,2.22
2022-08-17T15:40:38.034Z,1.90
2022-08-17T15:43:10.412Z,2.30
2022-08-17T15:45:39.557Z,2.00
2022-08-17T15:48:07.629Z,1.83
2022-08-17T15:50:36.546Z,2.10
2022-08-17T15:53:04.942Z,2.00
2022-08-17T15:55:33.899Z,1.90
2022-08-17T15:58:02.531Z,1.92
2022-08-17T16:00:49.358Z,2.08
2022-08-17T16:03:58.236Z,1.88
2022-08-17T16:06:09.362Z,1.77
2022-08-17T16:08:41.724Z,2.10
2022-08-17T16:11:10.640Z,2.20
2022-08-17T16:13:39.956Z,2.15
2022-08-17T16:16:12.141Z,2.33
2022-08-17T16:18:40.438Z,1.80
2022-08-17T16:21:31.252Z,1.92
2022-08-17T16:24:12.745Z,2.20
2022-08-17T16:26:42.195Z,1.85
2022-08-17T16:29:11.199Z,1.83
2022-08-17T16:31:41.886Z,2.08
2022-08-17T16:34:17.006Z,2.00
2022-08-17T16:36:51.809Z,1.98
2022-08-17T16:39:24.294Z,2.10
2022-08-17T16:41:52.350Z,1.80
2022-08-17T16:44:22.582Z,2.22
2022-08-17T16:46:52.610Z,2.30
2022-08-17T16:49:31.915Z,1.85
2022-08-17T16:52:07.587Z,1.80
2022-08-17T16:54:38.067Z,2.05
2022-08-17T16:57:06.547Z,2.50
2022-08-17T16:59:40.708Z,1.90
2022-08-17T17:02:14.687Z,2.10
2022-08-17T17:04:51.596Z,2.40
2022-08-17T17:07:41.737Z,2.20
2022-08-17T17:10:11.772Z,1.95
2022-08-17T17:13:02.041Z,2.03
2022-08-17T17:15:43.199Z,2.45
2022-08-17T17:18:15.682Z,2.38
2022-08-17T17:20:50.761Z,2.30
2022-08-17T17:23:36.572Z,2.40
2022-08-17T17:26:18.938Z,2.55
2022-08-17T17:29:11.854Z,2.33
2022-08-17T17:31:46.332Z,2.40
2022-08-17T17:34:18.512Z,2.00
2022-08-17T17:36:51.673Z,2.42
2022-08-17T17:39:24.362Z,2.05
2022-08-17T17:41:57.257Z,1.98
2022-08-17T17:44:28.742Z,2.35
2022-08-17T17:46:59.411Z,2.30
2022-08-17T17:49:32.914Z,1.98
2022-08-17T17:52:12.291Z,2.35
2022-08-17T17:55:02.476Z,2.10
2022-08-17T17:57:40.791Z,2.17
2022-08-17T18:00:15.171Z,2.08
2022-08-17T18:02:58.301Z,2.13
2022-08-17T18:05:44.677Z,2.15
2022-08-17T18:08:33.783Z,2.03
2022-08-17T18:11:13.487Z,1.90
2022-08-17T18:13:56.699Z,2.30
2022-08-17T18:16:29.695Z,2.20
2022-08-17T18:19:01.482Z,2.30
2022-08-17T18:21:44.420Z,1.75
2022-08-17T18:24:13.342Z,2.50
2022-08-17T18:26:48.948Z,2.50
2022-08-17T18:29:35.921Z,2.40
2022-08-17T18:32:34.509Z,1.95
2022-08-17T18:35:19.103Z,2.20
2022-08-17T18:37:51.372Z,2.22
2022-08-17T18:40:38.082Z,2.50
2022-08-17T18:43:26.618Z,2.25
2022-08-17T18:45:56.872Z,2.60
2022-08-17T18:48:32.983Z,2.33
2022-08-17T18:51:06.092Z,2.33
2022-08-17T18:53:40.773Z,2.05
2022-08-17T18:56:25.718Z,2.40
2022-08-17T18:59:08.939Z,2.17
2022-08-17T19:01:41.930Z,2.13
2022-08-17T19:04:33.900Z,2.25
2022-08-17T19:07:10.273Z,2.20
2022-08-17T19:09:44.748Z,2.20
2022-08-17T19:12:27.166Z,2.20
2022-08-17T19:14:58.038Z,2.22
2022-08-17T19:17:31.802Z,2.70
2022-08-17T19:20:06.401Z,2.25
2022-08-17T19:22:45.476Z,2.80
2022-08-17T19:25:21.827Z,2.78
2022-08-17T19:27:57.823Z,2.72
2022-08-17T19:30:26.448Z,2.97
2022-08-17T19:32:55.882Z,2.63
2022-08-17T19:35:28.778Z,2.53
2022-08-17T19:38:06.316Z,2.55
2022-08-17T19:41:02.647Z,2.50
2022-08-17T19:43:54.691Z,2.30
2022-08-17T19:46:30.916Z,2.35
2022-08-17T19:49:09.324Z,2.45
2022-08-17T19:51:42.796Z,2.40
2022-08-17T19:54:20.428Z,2.50
2022-08-17T19:56:58.490Z,2.38
2022-08-17T19:59:49.288Z,2.40
2022-08-17T20:02:31.939Z,2.83
2022-08-17T20:05:04.576Z,2.80
2022-08-17T20:07:42.946Z,2.63
2022-08-17T20:10:16.008Z,2.85
2022-08-17T20:12:48.707Z,2.75
2022-08-17T20:15:30.041Z,2.97
2022-08-17T20:18:01.379Z,3.20
2022-08-17T20:20:36.993Z,2.88
2022-08-17T20:23:12.451Z,2.95
2022-08-17T20:25:48.949Z,2.40
2022-08-17T20:28:25.058Z,2.55
2022-08-17T20:30:53.972Z,2.65
2022-08-17T20:33:28.796Z,2.95
2022-08-17T20:36:19.595Z,2.40
2022-08-17T20:38:51.618Z,2.50
2022-08-17T20:41:22.548Z,2.63
2022-08-17T20:44:06.422Z,3.30
2022-08-17T20:46:53.326Z,2.95
2022-08-17T20:49:27.438Z,2.95
2022-08-17T20:52:03.764Z,3.20
2022-08-17T20:54:45.509Z,3.13
2022-08-17T20:57:47.373Z,2.58
2022-08-17T21:00:50.189Z,2.72
2022-08-17T21:03:58.203Z,3.25
2022-08-17T21:06:26.780Z,2.78
2022-08-17T21:09:19.378Z,3.22
2022-08-17T21:12:04.584Z,2.80
2022-08-17T21:15:01.287Z,3.00
2022-08-17T21:17:43.589Z,3.20
2022-08-17T21:20:32.641Z,3.40
2022-08-17T21:23:36.439Z,2.65
2022-08-17T21:26:19.045Z,3.03
2022-08-17T21:29:29.702Z,3.60
2022-08-17T21:32:18.503Z,3.47
2022-08-17T21:35:28.819Z,3.28
2022-08-17T21:38:03.632Z,3.50
2022-08-17T21:40:34.025Z,4.07
2022-08-17T21:43:17.428Z,3.40
2022-08-17T21:45:57.209Z,2.92
2022-08-17T21:48:27.213Z,3.30
2022-08-17T21:51:04.143Z,3.60
2022-08-17T21:53:39.675Z,3.63
2022-08-17T21:56:09.370Z,3.67
2022-08-17T21:58:40.914Z,3.58
2022-08-17T22:01:31.493Z,4.00
2022-08-17T22:04:04.523Z,3.10
2022-08-17T22:06:38.448Z,3.03
2022-08-17T22:09:14.406Z,3.47
2022-08-17T22:12:05.692Z,3.15
2022-08-17T22:14:53.370Z,3.65
2022-08-17T22:17:25.412Z,3.42
2022-08-17T22:19:56.506Z,3.45
2022-08-17T22:22:33.624Z,3.60
2022-08-17T22:25:06.279Z,3.72
2022-08-17T22:27:50.173Z,3.85
2022-08-17T22:30:26.331Z,3.60
2022-08-17T22:32:55.460Z,3.50
2022-08-17T22:35:38.663Z,3.85
2022-08-17T22:38:30.997Z,3.53
2022-08-17T22:41:15.825Z,3.97
2022-08-17T22:43:45.049Z,4.00
2022-08-17T22:46:14.972Z,3.47
2022-08-17T22:48:50.558Z,3.75
2022-08-17T22:51:23.277Z,4.10
2022-08-17T22:54:13.083Z,3.83
2022-08-17T22:57:07.260Z,3.67
2022-08-17T22:59:48.699Z,3.78
2022-08-17T23:02:21.879Z,3.45
2022-08-17T23:04:52.487Z,4.20
2022-08-17T23:07:21.682Z,3.67
2022-08-17T23:09:53.291Z,3.80
2022-08-17T23:12:26.665Z,3.22
2022-08-17T23:15:00.662Z,3.83
2022-08-17T23:17:33.976Z,3.85
2022-08-17T23:20:03.271Z,3.92
2022-08-17T23:22:33.206Z,3.50
2022-08-17T23:25:03.767Z,4.38
2022-08-17T23:27:32.269Z,3.70
2022-08-17T23:30:00.289Z,3.65
2022-08-17T23:32:29.139Z,3.70
2022-08-17T23:34:59.162Z,3.90
2022-08-17T23:37:28.429Z,3.95
2022-08-17T23:39:56.615Z,3.72
2022-08-17T23:42:26.065Z,3.17
2022-08-17T23:44:54.184Z,4.15
2022-08-17T23:47:22.255Z,3.90
2022-08-17T23:49:54.150Z,4.32
2022-08-17T23:52:23.322Z,3.67
2022-08-17T23:54:51.657Z,3.50
2022-08-17T23:57:33.065Z,4.68
